Time;durP1;ratioP1;P1;durP2;ratioP2;P2;SDS_P1;SDS_P2;PMS_P1;PMS_P2;Temp;Humidity;BMP_temperature;BMP_pressure;BME280_temperature;BME280_humidity;BME280_pressure;Samples;Min_cycle;Max_cycle;Signal;HPM_P1;HPM_P2
2023/03/15 00:01:07;;;;;;;10.25;4.43;;;;;;;6.82;72.97;101136.16;5077534;28;20529;-64
2023/03/15 00:03:36;;;;;;;11.52;4.95;;;;;;;6.90;72.99;101132.03;5061347;28;20041;-63
2023/03/15 00:06:03;;;;;;;9.07;4.57;;;;;;;6.87;72.98;101138.06;5072950;28;20063;-65
2023/03/15 00:08:33;;;;;;;16.50;5.18;;;;;;;6.69;73.34;101142.22;5059092;28;20049;-64
2023/03/15 00:11:01;;;;;;;;;;;;;;;6.84;73.50;101133.94;5072376;28;20059;-64
2023/03/15 00:13:28;;;;;;;13.45;4.88;;;;;;;7.04;72.56;101146.75;5078891;28;19920;-64
2023/03/15 00:15:58;;;;;;;15.05;4.78;;;;;;;6.94;72.39;101133.91;5059313;28;20056;-63
2023/03/15 00:18:26;;;;;;;13.27;4.60;;;;;;;7.05;72.46;101132.78;5077996;28;20475;-64
2023/03/15 00:20:53;;;;;;;9.82;5.07;;;;;;;6.97;72.73;101130.63;5075785;28;20052;-65
2023/03/15 00:23:21;;;;;;;13.98;4.82;;;;;;;7.21;71.86;101142.59;5078875;28;20052;-64
2023/03/15 00:25:50;;;;;;;12.10;4.75;;;;;;;7.37;71.42;101133.19;5075952;28;20052;-63
2023/03/15 00:28:17;;;;;;;11.70;4.35;;;;;;;7.28;71.50;101136.78;5076997;28;20053;-64
2023/03/15 00:30:44;;;;;;;10.77;4.05;;;;;;;7.31;71.72;101141.69;5074282;28;20060;-64
2023/03/15 00:33:14;;;;;;;10.75;4.72;;;;;;;7.36;71.20;101137.03;5077536;28;20044;-63
2023/03/15 00:35:43;;;;;;;13.82;5.07;;;;;;;7.52;70.92;101135.84;5075613;28;20064;-63
2023/03/15 00:38:12;;;;;;;11.20;4.25;;;;;;;7.37;70.92;101133.19;5067588;28;20138;-65
2023/03/15 00:40:41;;;;;;;9.95;4.53;;;;;;;7.28;71.39;101140.38;5062102;28;20056;-63
2023/03/15 00:43:08;;;;;;;12.05;4.78;;;;;;;7.21;71.54;101145.31;5078612;28;20049;-65
2023/03/15 00:45:35;;;;;;;10.93;4.90;;;;;;;7.22;72.07;101148.91;5076459;28;20040;-63
2023/03/15 00:48:03;;;;;;;12.45;4.65;;;;;;;6.95;72.33;101152.00;5077007;28;20048;-64
2023/03/15 00:50:30;;;;;;;13.60;4.95;;;;;;;7.06;72.87;101152.78;5068523;28;20407;-63
2023/03/15 00:52:58;;;;;;;15.23;5.05;;;;;;;7.01;72.56;101150.06;5076102;28;20435;-64
2023/03/15 00:55:28;;;;;;;10.75;4.65;;;;;;;7.12;72.61;101157.97;5058742;28;20064;-63
2023/03/15 00:57:55;;;;;;;12.13;5.15;;;;;;;7.16;72.23;101161.78;5076290;28;20048;-63
2023/03/15 01:00:23;;;;;;;12.43;5.00;;;;;;;7.16;72.39;101159.03;5057205;28;20060;-64
2023/03/15 01:02:52;;;;;;;9.85;4.60;;;;;;;6.99;72.75;101168.69;5075639;28;20041;-64
2023/03/15 01:05:20;;;;;;;11.82;4.50;;;;;;;7.04;72.46;101168.66;5075729;28;20056;-64
2023/03/15 01:07:48;;;;;;;14.65;4.57;;;;;;;6.99;72.45;101165.97;5077058;28;20494;-64
2023/03/15 01:10:16;;;;;;;10.57;4.15;;;;;;;6.90;72.32;101165.72;5077284;28;20056;-64
2023/03/15 01:12:44;;;;;;;13.60;4.00;;;;;;;6.87;72.77;101170.91;5074841;28;20065;-64
2023/03/15 01:15:14;;;;;;;11.15;4.30;;;;;;;6.99;72.40;101165.97;5075986;28;20059;-64
2023/03/15 01:17:43;;;;;;;10.40;4.50;;;;;;;6.96;72.58;101166.53;5075364;28;20052;-63
2023/03/15 01:20:14;;;;;;;15.40;4.43;;;;;;;7.00;72.15;101170.31;5076568;28;20048;-64
2023/03/15 01:22:42;;;;;;;10.32;4.30;;;;;;;6.92;71.96;101169.00;5075044;28;20063;-64
2023/03/15 01:25:09;;;;;;;12.63;4.05;;;;;;;6.92;72.39;101170.91;5077416;28;20064;-65
2023/03/15 01:27:36;;;;;;;11.63;4.07;;;;;;;6.83;72.74;101168.72;5076615;28;20052;-70
2023/03/15 01:30:05;;;;;;;11.43;3.70;;;;;;;6.64;73.08;101173.13;5076671;28;20048;-70
2023/03/15 01:32:33;;;;;;;11.90;3.92;;;;;;;6.78;72.68;101171.47;5055609;28;20436;-70
2023/03/15 01:35:01;;;;;;;12.90;4.50;;;;;;;6.69;72.65;101175.06;5059896;28;20059;-70
2023/03/15 01:37:28;;;;;;;11.85;4.47;;;;;;;6.68;72.53;101166.03;5058807;28;20056;-71
2023/03/15 01:39:56;;;;;;;11.30;4.72;;;;;;;6.66;73.31;101172.84;5075882;28;20044;-69
2023/03/15 01:42:24;;;;;;;12.40;4.00;;;;;;;6.71;72.71;101170.94;5070756;28;20053;-69
2023/03/15 01:44:56;;;;;;;17.00;4.35;;;;;;;6.69;72.46;101169.59;5064777;28;20437;-70
2023/03/15 01:47:24;;;;;;;12.02;3.58;;;;;;;6.57;73.23;101180.81;5073924;28;20048;-70
2023/03/15 01:50:24;;;;;;;12.27;4.40;;;;;;;6.52;73.04;101180.03;5076369;28;20051;-70
2023/03/15 01:52:52;;;;;;;10.43;3.85;;;;;;;6.61;72.94;101184.66;5058109;28;20087;-70
2023/03/15 01:55:19;;;;;;;14.70;5.22;;;;;;;6.70;72.53;101182.16;5076611;28;20067;-71
2023/03/15 01:58:07;;;;;;;12.57;3.97;;;;;;;6.64;72.48;101183.28;5076139;28;20055;-70
2023/03/15 02:00:38;;;;;;;15.10;4.57;;;;;;;6.67;72.33;101180.00;5074046;28;20051;-69
2023/03/15 02:03:13;;;;;;;13.70;4.03;;;;;;;6.59;72.54;101186.03;5051017;28;20492;-71
2023/03/15 02:05:47;;;;;;;8.50;3.55;;;;;;;6.53;72.94;101187.13;5066204;28;20052;-71
2023/03/15 02:08:26;;;;;;;15.63;4.75;;;;;;;6.34;73.57;101184.13;5059222;28;20055;-69
2023/03/15 02:10:57;;;;;;;7.32;3.55;;;;;;;6.59;72.78;101189.56;5052193;28;20048;-71
2023/03/15 02:13:25;;;;;;;12.70;3.65;;;;;;;6.42;72.45;101180.00;5056260;28;20070;-70
2023/03/15 02:15:55;;;;;;;9.45;3.17;;;;;;;6.31;72.76;101184.66;5044253;28;20052;-70
2023/03/15 02:18:36;;;;;;;11.07;3.80;;;;;;;6.31;72.91;101176.44;5060692;28;20049;-71
2023/03/15 02:21:18;;;;;;;11.75;3.50;;;;;;;6.14;73.40;101178.66;5073589;28;20122;-70
2023/03/15 02:23:56;;;;;;;11.77;4.30;;;;;;;6.26;72.98;101171.00;5064325;28;20060;-70
2023/03/15 02:26:34;;;;;;;10.90;4.18;;;;;;;6.44;72.15;101172.34;5064160;28;20384;-70
2023/03/15 02:29:01;;;;;;;8.65;3.53;;;;;;;6.39;71.79;101175.09;5076691;28;20040;-70
2023/03/15 02:31:28;;;;;;;10.52;3.75;;;;;;;6.40;72.03;101172.06;5071767;28;20048;-69
2023/03/15 02:33:56;;;;;;;12.55;3.67;;;;;;;6.11;72.63;101168.25;5057417;28;20048;-70
2023/03/15 02:36:27;;;;;;;11.13;3.92;;;;;;;6.01;73.28;101170.16;5065157;28;20049;-70
2023/03/15 02:38:55;;;;;;;8.63;3.55;;;;;;;5.94;73.23;101169.63;5038675;28;20404;-70
2023/03/15 02:41:25;;;;;;;8.85;3.60;;;;;;;6.00;73.24;101177.53;5056940;28;20052;-70
2023/03/15 02:43:54;;;;;;;10.85;4.20;;;;;;;5.77;73.52;101169.81;5058906;28;20043;-71
2023/03/15 02:46:23;;;;;;;13.07;4.40;;;;;;;5.83;73.31;101165.22;5057225;28;20407;-71
2023/03/15 02:48:52;;;;;;;9.43;3.67;;;;;;;5.87;73.69;101164.41;5069467;28;20397;-71
2023/03/15 02:51:23;;;;;;;10.90;4.13;;;;;;;5.98;73.16;101163.31;5065464;28;20052;-71
2023/03/15 02:53:50;;;;;;;12.27;4.00;;;;;;;5.85;73.84;101169.31;5076417;28;20044;-70
2023/03/15 02:56:18;;;;;;;8.13;4.20;;;;;;;5.67;73.69;101167.06;5073126;28;20059;-70
2023/03/15 02:58:46;;;;;;;10.98;4.63;;;;;;;5.63;74.27;101168.72;5075011;28;20861;-69
2023/03/15 03:01:15;;;;;;;13.23;4.38;;;;;;;5.91;73.70;101170.97;5074366;28;20060;-70
2023/03/15 03:03:44;;;;;;;13.63;4.28;;;;;;;5.93;73.22;101166.03;5076308;28;20530;-70
2023/03/15 03:06:13;;;;;;;;;;;;;;;5.96;73.59;101178.38;5073389;28;20048;-69
2023/03/15 03:08:41;;;;;;;11.68;4.28;;;;;;;6.06;72.95;101184.66;5058720;28;19921;-69
2023/03/15 03:11:09;;;;;;;10.25;4.00;;;;;;;6.12;72.28;101180.03;5072863;28;20056;-70
2023/03/15 03:13:36;;;;;;;11.40;3.92;;;;;;;5.77;72.57;101178.00;5057671;28;20060;-70
2023/03/15 03:16:05;;;;;;;10.23;4.30;;;;;;;6.08;72.43;101190.69;5072797;28;20081;-70
2023/03/15 03:18:34;;;;;;;9.77;4.00;;;;;;;6.05;72.28;101187.69;5074844;28;20052;-71
2023/03/15 03:21:05;;;;;;;9.23;3.60;;;;;;;5.94;73.03;101194.22;5072997;28;20053;-70
2023/03/15 03:23:33;;;;;;;11.30;3.65;;;;;;;6.17;72.45;101193.69;5076095;28;20052;-69
2023/03/15 03:26:01;;;;;;;16.17;4.07;;;;;;;6.05;72.23;101201.34;5072676;28;20059;-69
2023/03/15 03:28:32;;;;;;;10.30;3.90;;;;;;;6.21;71.60;101208.44;5074929;28;20055;-72
2023/03/15 03:31:00;;;;;;;13.35;3.90;;;;;;;6.15;71.54;101198.63;5073107;28;20059;-72
2023/03/15 03:33:28;;;;;;;9.23;3.58;;;;;;;6.02;72.07;101202.69;5074626;28;20048;-71
2023/03/15 03:36:01;;;;;;;12.07;3.47;;;;;;;5.90;72.71;101198.56;5039377;28;20499;-72
2023/03/15 03:38:28;;;;;;;11.30;3.55;;;;;;;5.97;72.80;101208.16;5071626;28;20283;-71
2023/03/15 03:40:58;;;;;;;11.48;3.70;;;;;;;5.94;72.43;101214.19;5059764;28;20518;-71
2023/03/15 03:43:28;;;;;;;11.68;3.80;;;;;;;5.90;72.98;101212.25;5074979;28;20060;-71
2023/03/15 03:45:55;;;;;;;12.43;3.53;;;;;;;5.86;73.14;101209.22;5071409;28;20056;-69
2023/03/15 03:48:23;;;;;;;15.15;3.78;;;;;;;5.67;73.98;101199.84;5057256;28;20064;-70
2023/03/15 03:50:50;;;;;;;12.40;3.63;;;;;;;5.70;73.75;101202.06;5074283;28;20071;-69
2023/03/15 03:53:17;;;;;;;9.02;3.65;;;;;;;5.91;73.45;101203.75;5075787;28;20051;-70
2023/03/15 03:55:45;;;;;;;13.05;4.35;;;;;;;5.88;73.19;101204.31;5072265;28;20048;-70
2023/03/15 03:58:17;;;;;;;8.32;3.90;;;;;;;5.93;73.28;101201.59;5068240;28;20053;-70
2023/03/15 04:00:53;;;;;;;10.82;3.17;;;;;;;5.90;73.08;101210.34;5057845;28;20056;-70
2023/03/15 04:03:25;;;;;;;11.05;3.40;;;;;;;5.94;73.09;101213.34;5058522;28;20060;-70
2023/03/15 04:05:59;;;;;;;10.45;3.30;;;;;;;5.77;73.52;101216.28;5057698;28;20613;-70
2023/03/15 04:08:28;;;;;;;13.75;3.55;;;;;;;5.82;73.52;101210.84;5073783;28;20052;-70
2023/03/15 04:10:56;;;;;;;15.07;3.50;;;;;;;5.83;73.86;101226.19;5073418;28;20052;-69
2023/03/15 04:13:26;;;;;;;10.30;3.00;;;;;;;5.85;73.76;101214.97;5078205;28;20060;-69
2023/03/15 04:15:56;;;;;;;15.15;4.10;;;;;;;5.86;73.54;101227.56;5043058;28;20053;-71
2023/03/15 04:18:29;;;;;;;9.57;3.45;;;;;;;5.85;73.98;101218.53;5061501;28;20063;-71
2023/03/15 04:20:57;;;;;;;9.75;2.95;;;;;;;5.90;73.73;101223.19;5076327;28;20063;-70
2023/03/15 04:23:24;;;;;;;13.02;3.58;;;;;;;5.74;74.22;101220.38;5061234;28;20067;-70
2023/03/15 04:26:10;;;;;;;11.85;3.90;;;;;;;5.89;73.72;101227.00;5075325;28;20052;-71
2023/03/15 04:29:00;;;;;;;;;;;;;;;5.84;74.21;101213.34;5079337;28;20067;-71
2023/03/15 04:31:36;;;;;;;13.27;2.80;;;;;;;5.88;74.03;101207.06;5075994;28;19920;-69
2023/03/15 04:34:27;;;;;;;15.27;3.25;;;;;;;6.00;74.12;101210.34;5076320;28;20048;-70
2023/03/15 04:37:11;;;;;;;13.40;3.75;;;;;;;6.00;73.91;101204.88;5063444;28;20523;-70
2023/03/15 04:39:57;;;;;;;10.45;3.03;;;;;;;5.97;73.28;101205.44;5043408;28;20052;-71
2023/03/15 04:42:44;;;;;;;12.63;3.20;;;;;;;6.02;74.09;101210.91;5093373;28;20052;-70
2023/03/15 04:45:31;;;;;;;22.55;3.20;;;;;;;5.89;74.30;101210.63;5075767;28;20052;-70
2023/03/15 04:48:00;;;;;;;15.13;3.15;;;;;;;6.07;74.49;101219.13;5077893;28;20057;-69
2023/03/15 04:50:38;;;;;;;11.37;3.17;;;;;;;5.87;74.19;101221.81;5075447;28;20074;-69
2023/03/15 04:53:24;;;;;;;9.35;2.60;;;;;;;5.89;74.95;101227.84;5043318;28;20049;-70
2023/03/15 04:56:23;;;;;;;16.42;3.30;;;;;;;5.74;75.38;101223.13;5075402;28;20045;-70
2023/03/15 04:59:14;;;;;;;13.25;3.20;;;;;;;5.71;75.25;101220.94;5062574;28;20052;-70
2023/03/15 05:02:19;;;;;;;11.98;2.95;;;;;;;5.59;75.88;101227.72;5032520;28;20580;-69
2023/03/15 05:05:16;;;;;;;12.02;2.63;;;;;;;5.82;76.07;101223.69;5013684;28;20041;-70
2023/03/15 05:07:56;;;;;;;16.27;2.92;;;;;;;5.76;75.63;101225.59;5042599;28;20079;-70
2023/03/15 05:10:53;;;;;;;11.55;3.35;;;;;;;5.95;75.59;101237.69;5037729;28;20073;-70
2023/03/15 05:13:29;;;;;;;11.70;3.13;;;;;;;6.01;74.80;101238.53;5074512;28;20046;-70
2023/03/15 05:16:05;;;;;;;11.57;3.17;;;;;;;5.95;75.19;101239.59;5071501;28;20045;-70
2023/03/15 05:18:56;;;;;;;11.43;3.40;;;;;;;5.82;75.36;101251.03;5061790;28;20059;-70
2023/03/15 05:21:40;;;;;;;11.88;2.92;;;;;;;5.95;75.60;101250.53;5076114;28;20048;-70
2023/03/15 05:24:27;;;;;;;9.85;2.65;;;;;;;5.88;75.47;101242.59;5077616;28;20048;-69
2023/03/15 05:27:17;;;;;;;12.35;3.10;;;;;;;5.92;75.11;101246.44;5070317;28;20057;-70
2023/03/15 05:30:07;;;;;;;12.75;3.00;;;;;;;6.13;74.97;101239.09;5073251;28;20063;-70
2023/03/15 05:32:54;;;;;;;12.70;2.88;;;;;;;6.01;74.55;101233.06;5056589;28;20056;-69
2023/03/15 05:35:32;;;;;;;11.18;2.90;;;;;;;6.14;74.62;101235.25;5058776;28;20044;-70
2023/03/15 05:38:18;;;;;;;13.18;3.10;;;;;;;6.19;74.81;101241.56;5062287;28;20063;-70
2023/03/15 05:40:57;;;;;;;13.40;3.17;;;;;;;6.19;74.61;101238.03;5056024;28;20053;-70
2023/03/15 05:43:33;;;;;;;14.02;3.40;;;;;;;6.17;74.20;101242.94;5064452;28;20045;-71
2023/03/15 05:46:15;;;;;;;13.98;3.25;;;;;;;5.93;75.23;101242.59;5074486;28;20056;-71
2023/03/15 05:48:57;;;;;;;18.63;3.58;;;;;;;6.02;75.13;101240.16;5076389;28;20064;-70
2023/03/15 05:51:29;;;;;;;13.25;2.80;;;;;;;6.04;75.27;101249.75;5041002;28;20056;-70
2023/03/15 05:54:15;;;;;;;13.20;2.83;;;;;;;5.84;75.91;101255.16;5077121;28;20151;-70
2023/03/15 05:57:01;;;;;;;11.63;3.08;;;;;;;6.04;75.75;101254.38;5074658;28;20661;-70
2023/03/15 05:59:42;;;;;;;11.77;3.10;;;;;;;6.01;75.38;101254.94;5027071;28;20053;-70
2023/03/15 06:02:33;;;;;;;10.18;3.47;;;;;;;5.86;76.27;101263.91;5052494;28;20064;-70
2023/03/15 06:05:32;;;;;;;15.98;4.03;;;;;;;5.77;76.19;101264.69;5035986;28;20060;-70
2023/03/15 06:08:02;;;;;;;;;;;;;;;6.05;76.03;101267.78;5068409;28;20408;-69
2023/03/15 06:10:30;;;;;;;14.82;3.50;;;;;;;6.18;74.84;101267.28;5074769;28;19928;-69
2023/03/15 06:13:02;;;;;;;13.60;3.25;;;;;;;6.20;74.71;101267.00;5075469;28;20036;-69
2023/03/15 06:15:30;;;;;;;13.93;2.97;;;;;;;6.30;73.96;101264.28;5073856;28;20052;-68
2023/03/15 06:17:59;;;;;;;12.05;2.90;;;;;;;5.87;75.40;101267.47;5074945;28;20079;-70
2023/03/15 06:20:27;;;;;;;14.18;2.95;;;;;;;5.67;76.67;101270.91;5057865;28;20058;-70
2023/03/15 06:22:56;;;;;;;17.35;3.58;;;;;;;5.94;76.45;101263.41;5074381;28;20059;-70
2023/03/15 06:25:35;;;;;;;14.45;3.20;;;;;;;6.10;75.67;101267.78;5044186;28;20059;-71
2023/03/15 06:28:02;;;;;;;9.25;3.13;;;;;;;6.11;75.19;101274.91;5075118;28;20064;-72
2023/03/15 06:30:30;;;;;;;13.60;3.30;;;;;;;6.12;75.31;101278.47;5075135;28;20049;-71
2023/03/15 06:33:00;;;;;;;15.15;3.10;;;;;;;6.05;75.68;101288.84;5074616;28;20057;-71
2023/03/15 06:35:29;;;;;;;15.45;3.20;;;;;;;6.13;75.62;101283.69;5055244;28;20059;-72
2023/03/15 06:37:56;;;;;;;14.77;3.33;;;;;;;6.05;75.52;101281.44;5057594;28;20403;-72
2023/03/15 06:40:23;;;;;;;19.17;3.90;;;;;;;6.22;75.88;101281.22;5058425;28;20060;-72
2023/03/15 06:42:53;;;;;;;12.32;3.35;;;;;;;6.36;75.14;101285.09;5057891;28;20048;-70
2023/03/15 06:45:21;;;;;;;18.42;3.25;;;;;;;6.49;74.38;101287.28;5069054;28;20053;-71
2023/03/15 06:47:49;;;;;;;9.45;3.22;;;;;;;6.54;74.04;101279.88;5057396;28;20075;-71
2023/03/15 06:50:17;;;;;;;13.80;3.67;;;;;;;6.58;73.94;101282.91;5073976;28;20052;-71
2023/03/15 06:52:44;;;;;;;12.18;3.83;;;;;;;6.55;74.09;101288.94;5067943;28;20052;-70
2023/03/15 06:55:16;;;;;;;15.07;3.85;;;;;;;6.58;74.18;101286.47;5045689;28;20399;-71
2023/03/15 06:57:44;;;;;;;14.20;3.40;;;;;;;6.55;74.25;101283.47;5042996;28;20052;-72
2023/03/15 07:00:12;;;;;;;13.82;3.20;;;;;;;6.59;73.84;101288.09;5061783;28;20416;-70
2023/03/15 07:02:41;;;;;;;20.08;3.70;;;;;;;6.52;73.69;101289.47;5064761;28;20068;-76
2023/03/15 07:05:09;;;;;;;18.92;3.38;;;;;;;6.33;74.24;101280.16;5062450;28;20071;-72
2023/03/15 07:07:36;;;;;;;14.00;3.25;;;;;;;6.33;74.76;101285.63;5039910;28;20072;-75
2023/03/15 07:10:04;;;;;;;12.77;3.17;;;;;;;6.38;74.32;101285.63;5074710;28;20059;-71
2023/03/15 07:12:31;;;;;;;17.50;3.78;;;;;;;6.43;74.62;101296.59;5056648;28;20049;-69
2023/03/15 07:14:58;;;;;;;13.23;3.65;;;;;;;6.63;73.65;101302.88;5074936;28;20507;-70
2023/03/15 07:17:25;;;;;;;12.05;4.00;;;;;;;6.74;73.49;101299.06;5073397;28;20045;-70
2023/03/15 07:19:53;;;;;;;19.75;3.95;;;;;;;6.65;73.16;101300.72;5057322;28;20064;-69
2023/03/15 07:22:23;;;;;;;12.38;2.92;;;;;;;6.49;73.95;101296.31;5074795;28;20057;-70
2023/03/15 07:24:51;;;;;;;21.27;3.95;;;;;;;6.50;73.86;101303.41;5040983;28;20052;-68
2023/03/15 07:27:18;;;;;;;13.10;3.85;;;;;;;6.54;73.84;101304.53;5073172;28;20036;-70
2023/03/15 07:29:45;;;;;;;16.77;4.22;;;;;;;6.57;74.03;101314.13;5066918;28;20132;-68
2023/03/15 07:32:13;;;;;;;12.25;3.60;;;;;;;6.67;73.76;101320.41;5072520;28;20053;-70
2023/03/15 07:34:40;;;;;;;15.50;4.25;;;;;;;6.80;73.38;101313.56;5073255;28;20060;-69
2023/03/15 07:37:08;;;;;;;14.45;4.07;;;;;;;6.81;72.94;101316.03;5066726;28;20724;-71
2023/03/15 07:39:35;;;;;;;18.23;4.10;;;;;;;6.87;73.30;101322.31;5055521;28;20057;-69
2023/03/15 07:42:05;;;;;;;16.00;3.70;;;;;;;6.93;73.11;101323.97;5052165;28;20052;-70
2023/03/15 07:44:39;;;;;;;12.45;3.80;;;;;;;6.94;73.11;101331.06;5057089;28;20048;-70
2023/03/15 07:47:07;;;;;;;18.73;4.40;;;;;;;6.87;73.20;101336.00;5072687;28;20041;-71
2023/03/15 07:49:34;;;;;;;15.82;3.65;;;;;;;6.85;73.09;101330.81;5059040;28;20064;-70
2023/03/15 07:52:02;;;;;;;16.58;4.05;;;;;;;6.61;73.82;101328.88;5072716;28;20057;-71
2023/03/15 07:54:30;;;;;;;17.25;4.38;;;;;;;6.80;74.48;101336.28;5073952;28;20040;-70
2023/03/15 07:56:58;;;;;;;21.27;4.65;;;;;;;6.89;74.05;101333.03;5077501;28;20673;-72
2023/03/15 07:59:25;;;;;;;20.25;4.15;;;;;;;7.25;73.61;101334.63;5080309;28;20052;-74
2023/03/15 08:01:52;;;;;;;19.70;3.70;;;;;;;7.12;72.89;101346.13;5078111;28;20044;-70
2023/03/15 08:04:20;;;;;;;19.83;4.28;;;;;;;7.09;73.07;101346.69;5077936;28;20402;-69
2023/03/15 08:06:47;;;;;;;15.95;4.20;;;;;;;6.93;73.23;101353.25;5072875;28;20484;-70
2023/03/15 08:09:14;;;;;;;14.07;3.40;;;;;;;6.91;73.72;101349.97;5069862;28;20056;-69
2023/03/15 08:11:42;;;;;;;15.57;3.50;;;;;;;7.20;73.58;101353.81;5048186;28;20052;-68
2023/03/15 08:14:12;;;;;;;16.65;3.75;;;;;;;7.34;73.91;101354.91;5065890;28;20053;-69
2023/03/15 08:16:39;;;;;;;14.93;3.53;;;;;;;7.44;72.44;101357.63;5065357;28;20492;-69
2023/03/15 08:19:08;;;;;;;18.38;3.63;;;;;;;7.53;72.24;101358.69;5057158;28;20053;-69
2023/03/15 08:21:35;;;;;;;16.17;4.32;;;;;;;7.59;71.19;101361.13;5066444;28;20044;-69
2023/03/15 08:24:03;;;;;;;13.32;3.83;;;;;;;7.48;71.68;101361.44;5063902;28;20041;-69
2023/03/15 08:26:30;;;;;;;25.27;4.22;;;;;;;7.36;71.66;101366.38;5062467;28;20041;-70
2023/03/15 08:28:57;;;;;;;15.43;3.88;;;;;;;7.18;72.66;101365.06;5066947;28;20064;-69
2023/03/15 08:31:25;;;;;;;13.50;4.53;;;;;;;7.45;72.23;101370.22;5059822;28;20064;-68
2023/03/15 08:33:52;;;;;;;16.48;3.78;;;;;;;7.58;71.70;101375.13;5060868;28;20143;-72
2023/03/15 08:36:19;;;;;;;18.27;4.05;;;;;;;7.58;71.58;101370.44;5059311;28;20042;-72
2023/03/15 08:38:47;;;;;;;18.55;3.85;;;;;;;7.74;71.40;101371.25;5058135;28;20041;-71
2023/03/15 08:41:14;;;;;;;20.83;4.63;;;;;;;7.91;70.35;101375.28;5064745;28;20048;-71
2023/03/15 08:43:42;;;;;;;18.45;4.15;;;;;;;8.09;70.45;101371.09;5047469;28;20048;-73
2023/03/15 08:46:10;;;;;;;20.23;4.60;;;;;;;7.94;69.60;101382.97;5060159;28;20565;-70
2023/03/15 08:48:37;;;;;;;14.77;4.75;;;;;;;7.88;70.17;101380.50;5060702;28;20048;-71
2023/03/15 08:51:05;;;;;;;15.52;4.93;;;;;;;8.09;69.89;101375.78;5065425;28;20048;-73
2023/03/15 08:53:33;;;;;;;19.35;4.05;;;;;;;8.19;69.99;101382.06;5062157;28;20068;-71
2023/03/15 08:56:00;;;;;;;17.65;5.05;;;;;;;8.18;69.80;101382.31;5063371;28;20056;-72
2023/03/15 08:58:28;;;;;;;16.92;3.53;;;;;;;7.97;70.45;101384.31;5064183;28;20040;-71
2023/03/15 09:00:56;;;;;;;15.75;4.15;;;;;;;8.30;70.40;101380.91;5063141;28;20061;-71
2023/03/15 09:03:23;;;;;;;16.75;3.83;;;;;;;8.51;69.10;101385.19;5058578;28;20049;-70
2023/03/15 09:05:55;;;;;;;17.48;3.78;;;;;;;8.71;68.72;101392.50;5064375;28;20048;-72
2023/03/15 09:08:24;;;;;;;21.48;3.80;;;;;;;8.87;68.57;101392.09;5059163;28;20037;-71
2023/03/15 09:10:55;;;;;;;20.85;5.00;;;;;;;9.26;66.33;101394.81;5059131;28;20056;-71
2023/03/15 09:13:23;;;;;;;13.63;3.60;;;;;;;8.97;66.73;101392.03;5058264;28;20057;-70
2023/03/15 09:15:51;;;;;;;15.73;3.75;;;;;;;9.06;66.91;101395.81;5062957;28;20068;-72
2023/03/15 09:18:20;;;;;;;18.05;3.97;;;;;;;8.98;66.60;101409.31;5063480;28;20041;-71
2023/03/15 09:20:48;;;;;;;19.05;4.65;;;;;;;8.50;68.46;101404.69;5061291;28;20060;-71
2023/03/15 09:23:15;;;;;;;18.77;6.03;;;;;;;8.85;68.04;101410.81;5056991;28;20072;-73
2023/03/15 09:25:43;;;;;;;21.67;9.00;;;;;;;9.12;66.94;101404.03;5065192;28;20048;-70
2023/03/15 09:28:11;;;;;;;22.10;4.70;;;;;;;9.05;66.59;101394.16;5061579;28;20060;-71
2023/03/15 09:30:39;;;;;;;22.85;5.00;;;;;;;9.08;66.42;101392.78;5061691;28;20063;-68
2023/03/15 09:33:08;;;;;;;21.60;5.78;;;;;;;9.56;66.44;101393.72;5063453;28;20416;-67
2023/03/15 09:35:35;;;;;;;23.88;9.52;;;;;;;12.25;72.76;101384.34;5060745;28;20064;-45
2023/03/15 09:38:02;;;;;;;14.30;3.80;;;;;;;11.73;60.19;101384.84;5062492;28;20052;-70
2023/03/15 09:40:32;;;;;;;14.35;3.40;;;;;;;10.94;60.43;101398.88;5057706;28;20057;-72
2023/03/15 09:43:05;;;;;;;20.27;3.60;;;;;;;10.00;64.11;101406.19;5056706;28;20052;-70
2023/03/15 09:45:48;;;;;;;14.55;3.50;;;;;;;9.56;65.53;101408.28;5064831;28;20115;-69
2023/03/15 09:48:28;;;;;;;14.15;3.25;;;;;;;9.91;65.20;101402.44;5069798;28;20049;-70
2023/03/15 09:51:02;;;;;;;15.32;3.53;;;;;;;9.82;64.71;101400.59;5068826;28;20056;-69
2023/03/15 09:53:34;;;;;;;12.57;2.38;;;;;;;9.80;64.85;101400.88;5076303;28;20059;-70
2023/03/15 09:56:02;;;;;;;13.07;2.47;;;;;;;9.42;65.78;101404.56;5052746;28;20052;-71
2023/03/15 09:58:34;;;;;;;13.57;2.78;;;;;;;9.67;65.17;101392.50;5053393;28;20412;-71
2023/03/15 10:01:04;;;;;;;17.30;2.72;;;;;;;9.34;65.81;101393.38;5070193;28;20411;-70
2023/03/15 10:03:40;;;;;;;;;;;;;;;9.22;66.67;101398.44;5063806;28;20507;-71
2023/03/15 10:06:15;;;;;;;20.00;2.55;;;;;;;9.64;65.11;101398.59;5060766;28;20383;-71
2023/03/15 10:08:45;;;;;;;12.35;2.58;;;;;;;9.74;64.27;101392.97;5048248;28;20115;-72
2023/03/15 10:11:20;;;;;;;20.53;3.33;;;;;;;9.68;63.47;101391.38;5065697;28;20393;-68
2023/03/15 10:14:25;;;;;;;11.85;2.53;;;;;;;9.51;64.63;101400.09;5061642;28;20053;-69
2023/03/15 10:16:53;;;;;;;25.05;2.90;;;;;;;10.20;65.50;101394.09;5054820;28;20044;-68
2023/03/15 10:19:36;;;;;;;13.27;3.42;;;;;;;10.45;62.76;101393.78;5057237;28;20056;-68
2023/03/15 10:22:12;;;;;;;12.30;2.90;;;;;;;10.19;61.77;101393.31;5064313;28;20045;-68
2023/03/15 10:24:45;;;;;;;16.25;3.10;;;;;;;10.27;62.14;101397.31;5062130;28;20060;-69
2023/03/15 10:27:47;;;;;;;15.80;4.07;;;;;;;9.97;63.14;101394.94;5057913;28;20056;-68
2023/03/15 10:30:18;;;;;;;16.00;2.63;;;;;;;9.47;63.48;101389.94;5058349;28;20090;-69
2023/03/15 10:32:51;;;;;;;13.40;2.97;;;;;;;9.41;64.05;101385.63;5061412;28;20060;-71
2023/03/15 10:35:20;;;;;;;23.25;3.88;;;;;;;9.91;63.64;101385.09;5058891;28;20083;-71
2023/03/15 10:37:48;;;;;;;16.95;3.03;;;;;;;10.13;62.38;101382.63;5057685;28;20110;-69
2023/03/15 10:40:47;;;;;;;12.68;2.55;;;;;;;10.65;61.18;101381.69;5056258;28;20736;-70
2023/03/15 10:43:21;;;;;;;11.77;2.47;;;;;;;10.53;60.56;101376.59;5061810;28;20052;-69
2023/03/15 10:46:06;;;;;;;12.45;2.65;;;;;;;10.76;59.87;101372.13;5056685;28;20049;-72
2023/03/15 10:48:36;;;;;;;11.15;3.10;;;;;;;10.64;59.35;101371.75;5057400;28;20045;-70
2023/03/15 10:51:05;;;;;;;15.80;3.10;;;;;;;10.71;58.94;101367.53;5048576;28;20044;-69
2023/03/15 10:53:33;;;;;;;17.27;3.30;;;;;;;10.99;58.52;101361.03;5063257;28;20511;-70
2023/03/15 10:56:13;;;;;;;17.65;3.35;;;;;;;11.03;58.24;101356.56;5057767;28;20306;-69
2023/03/15 10:58:45;;;;;;;16.00;3.03;;;;;;;11.22;57.54;101359.25;5058399;28;20049;-70
2023/03/15 11:01:35;;;;;;;15.73;3.00;;;;;;;11.29;56.79;101359.69;5064189;28;20504;-68
2023/03/15 11:04:14;;;;;;;16.05;2.88;;;;;;;11.44;56.67;101356.66;5054948;28;20052;-69
2023/03/15 11:06:45;;;;;;;10.48;2.65;;;;;;;11.65;55.74;101360.69;5032176;28;20056;-70
2023/03/15 11:09:16;;;;;;;13.57;2.75;;;;;;;11.68;53.38;101346.28;5039010;28;21516;-70
2023/03/15 11:11:48;;;;;;;14.57;2.55;;;;;;;11.84;52.65;101360.59;5062456;28;20427;-68
2023/03/15 11:14:16;;;;;;;13.90;2.20;;;;;;;11.76;52.27;101364.09;5059117;28;20045;-68
2023/03/15 11:16:53;;;;;;;12.00;2.65;;;;;;;11.84;50.24;101361.44;5059011;28;20060;-68
2023/03/15 11:19:24;;;;;;;11.60;2.22;;;;;;;11.53;49.53;101367.78;5058223;28;20064;-70
2023/03/15 11:21:52;;;;;;;9.23;1.80;;;;;;;11.35;50.42;101362.03;5029089;28;20045;-69
2023/03/15 11:24:27;;;;;;;10.32;2.20;;;;;;;11.49;49.79;101362.06;5060535;28;20107;-69
2023/03/15 11:27:00;;;;;;;10.13;2.28;;;;;;;11.48;49.75;101362.38;5065422;28;20049;-66
2023/03/15 11:29:33;;;;;;;9.38;1.85;;;;;;;11.25;50.37;101358.66;5060235;28;20063;-67
2023/03/15 11:32:03;;;;;;;13.48;1.90;;;;;;;11.21;50.47;101354.84;5060953;28;20056;-67
2023/03/15 11:34:37;;;;;;;12.38;3.13;;;;;;;11.58;50.27;101362.19;5059077;28;20056;-67
2023/03/15 11:37:27;;;;;;;16.15;2.83;;;;;;;11.61;51.36;101358.84;5061983;28;20044;-66
2023/03/15 11:40:08;;;;;;;15.95;3.50;;;;;;;11.55;50.39;101368.31;5070385;28;20067;-68
2023/03/15 11:43:01;;;;;;;13.77;6.72;;;;;;;11.71;50.48;101362.25;5044052;28;20607;-69
2023/03/15 11:46:05;;;;;;;16.38;4.72;;;;;;;11.74;50.93;101366.31;5061300;28;20037;-65
2023/03/15 11:48:47;;;;;;;11.02;2.85;;;;;;;11.78;49.40;101362.66;5012068;28;20073;-66
2023/03/15 11:51:15;;;;;;;13.02;2.45;;;;;;;11.79;49.28;101367.06;5035942;28;20761;-68